sensor_id;sensor_type;location;lat;lon;timestamp;pressure;altitude;pressure_sealevel;temperature
69186;BMP280;56298;49.246;9.410;2023-04-25T00:00:21;98817.28;;;9.47
69186;BMP280;56298;49.246;9.410;2023-04-25T00:02:46;98804.31;;;9.44
69186;BMP280;56298;49.246;9.410;2023-04-25T00:05:12;98801.16;;;9.42
69186;BMP280;56298;49.246;9.410;2023-04-25T00:07:37;98795.47;;;9.31
69186;BMP280;56298;49.246;9.410;2023-04-25T00:10:03;98798.19;;;9.31
69186;BMP280;56298;49.246;9.410;2023-04-25T00:12:29;98795.66;;;9.22
69186;BMP280;56298;49.246;9.410;2023-04-25T00:14:55;98792.66;;;9.27
69186;BMP280;56298;49.246;9.410;2023-04-25T00:17:22;98789.47;;;9.25
69186;BMP280;56298;49.246;9.410;2023-04-25T00:19:49;98792.84;;;9.18
69186;BMP280;56298;49.246;9.410;2023-04-25T00:22:15;98788.19;;;9.19
69186;BMP280;56298;49.246;9.410;2023-04-25T00:24:40;98791.56;;;9.32
69186;BMP280;56298;49.246;9.410;2023-04-25T00:27:06;98793.59;;;9.35
69186;BMP280;56298;49.246;9.410;2023-04-25T00:29:31;98796.81;;;9.41
69186;BMP280;56298;49.246;9.410;2023-04-25T00:31:56;98798.41;;;9.42
69186;BMP280;56298;49.246;9.410;2023-04-25T00:34:21;98788.53;;;9.37
69186;BMP280;56298;49.246;9.410;2023-04-25T00:36:47;98793.13;;;9.33
69186;BMP280;56298;49.246;9.410;2023-04-25T00:39:12;98792.72;;;9.31
69186;BMP280;56298;49.246;9.410;2023-04-25T00:41:38;98787.88;;;9.24
69186;BMP280;56298;49.246;9.410;2023-04-25T00:44:04;98785.53;;;9.23
69186;BMP280;56298;49.246;9.410;2023-04-25T00:46:32;98779.97;;;9.19
69186;BMP280;56298;49.246;9.410;2023-04-25T00:48:57;98784.63;;;9.18
69186;BMP280;56298;49.246;9.410;2023-04-25T00:51:23;98773.63;;;9.15
69186;BMP280;56298;49.246;9.410;2023-04-25T00:53:49;98765.53;;;9.02
69186;BMP280;56298;49.246;9.410;2023-04-25T00:56:15;98767.13;;;9.03
69186;BMP280;56298;49.246;9.410;2023-04-25T00:58:41;98767.31;;;8.95
69186;BMP280;56298;49.246;9.410;2023-04-25T01:01:07;98769.69;;;8.96
69186;BMP280;56298;49.246;9.410;2023-04-25T01:03:33;98763.44;;;8.96
69186;BMP280;56298;49.246;9.410;2023-04-25T01:06:01;98770.59;;;8.84
69186;BMP280;56298;49.246;9.410;2023-04-25T01:08:27;98768.22;;;8.83
69186;BMP280;56298;49.246;9.410;2023-04-25T01:10:53;98761.25;;;8.85
69186;BMP280;56298;49.246;9.410;2023-04-25T01:13:18;98769.38;;;8.82
69186;BMP280;56298;49.246;9.410;2023-04-25T01:15:44;98765.97;;;8.69
69186;BMP280;56298;49.246;9.410;2023-04-25T01:18:09;98768.25;;;8.67
69186;BMP280;56298;49.246;9.410;2023-04-25T01:20:37;98776.63;;;8.74
69186;BMP280;56298;49.246;9.410;2023-04-25T01:23:02;98764.19;;;8.76
69186;BMP280;56298;49.246;9.410;2023-04-25T01:25:31;98770.25;;;8.86
69186;BMP280;56298;49.246;9.410;2023-04-25T01:27:57;98773.75;;;8.86
69186;BMP280;56298;49.246;9.410;2023-04-25T01:30:24;98768.66;;;8.85
69186;BMP280;56298;49.246;9.410;2023-04-25T01:32:50;98765.72;;;8.94
69186;BMP280;56298;49.246;9.410;2023-04-25T01:35:16;98766.88;;;8.93
69186;BMP280;56298;49.246;9.410;2023-04-25T01:37:42;98772.88;;;8.98
69186;BMP280;56298;49.246;9.410;2023-04-25T01:40:09;98780.47;;;8.89
69186;BMP280;56298;49.246;9.410;2023-04-25T01:42:37;98768.41;;;8.90
69186;BMP280;56298;49.246;9.410;2023-04-25T01:45:03;98771.03;;;8.86
69186;BMP280;56298;49.246;9.410;2023-04-25T01:47:29;98769.00;;;8.83
69186;BMP280;56298;49.246;9.410;2023-04-25T01:49:55;98765.56;;;8.86
69186;BMP280;56298;49.246;9.410;2023-04-25T01:52:20;98769.31;;;8.78
69186;BMP280;56298;49.246;9.410;2023-04-25T01:54:46;98767.97;;;8.72
69186;BMP280;56298;49.246;9.410;2023-04-25T01:57:11;98769.47;;;8.69
69186;BMP280;56298;49.246;9.410;2023-04-25T01:59:37;98772.94;;;8.66
69186;BMP280;56298;49.246;9.410;2023-04-25T02:02:03;98770.81;;;8.75
69186;BMP280;56298;49.246;9.410;2023-04-25T02:04:29;98771.31;;;8.65
69186;BMP280;56298;49.246;9.410;2023-04-25T02:06:55;98770.97;;;8.67
69186;BMP280;56298;49.246;9.410;2023-04-25T02:09:20;98762.63;;;8.59
69186;BMP280;56298;49.246;9.410;2023-04-25T02:11:45;98767.63;;;8.57
69186;BMP280;56298;49.246;9.410;2023-04-25T02:14:11;98769.31;;;8.46
69186;BMP280;56298;49.246;9.410;2023-04-25T02:16:36;98770.63;;;8.52
69186;BMP280;56298;49.246;9.410;2023-04-25T02:19:02;98768.25;;;8.51
69186;BMP280;56298;49.246;9.410;2023-04-25T02:21:27;98769.13;;;8.55
69186;BMP280;56298;49.246;9.410;2023-04-25T02:23:52;98770.47;;;8.61
69186;BMP280;56298;49.246;9.410;2023-04-25T02:26:18;98766.50;;;8.58
69186;BMP280;56298;49.246;9.410;2023-04-25T02:28:43;98767.28;;;8.59
69186;BMP280;56298;49.246;9.410;2023-04-25T02:31:08;98760.38;;;8.65
69186;BMP280;56298;49.246;9.410;2023-04-25T02:33:33;98764.81;;;8.70
69186;BMP280;56298;49.246;9.410;2023-04-25T02:35:59;98766.84;;;8.73
69186;BMP280;56298;49.246;9.410;2023-04-25T02:38:24;98769.78;;;8.84
69186;BMP280;56298;49.246;9.410;2023-04-25T02:40:50;98771.31;;;8.81
69186;BMP280;56298;49.246;9.410;2023-04-25T02:43:15;98769.91;;;8.87
69186;BMP280;56298;49.246;9.410;2023-04-25T02:45:41;98771.63;;;8.96
69186;BMP280;56298;49.246;9.410;2023-04-25T02:48:06;98760.25;;;8.94
69186;BMP280;56298;49.246;9.410;2023-04-25T02:50:31;98765.31;;;8.92
69186;BMP280;56298;49.246;9.410;2023-04-25T02:52:57;98762.72;;;8.99
69186;BMP280;56298;49.246;9.410;2023-04-25T02:55:22;98751.88;;;9.02
69186;BMP280;56298;49.246;9.410;2023-04-25T02:57:47;98756.91;;;9.00
69186;BMP280;56298;49.246;9.410;2023-04-25T03:00:13;98751.88;;;9.02
69186;BMP280;56298;49.246;9.410;2023-04-25T03:02:39;98757.78;;;9.04
69186;BMP280;56298;49.246;9.410;2023-04-25T03:05:05;98750.22;;;8.98
69186;BMP280;56298;49.246;9.410;2023-04-25T03:07:31;98750.63;;;9.00
69186;BMP280;56298;49.246;9.410;2023-04-25T03:09:56;98756.03;;;8.96
69186;BMP280;56298;49.246;9.410;2023-04-25T03:12:21;98753.84;;;9.02
69186;BMP280;56298;49.246;9.410;2023-04-25T03:14:47;98754.88;;;8.97
69186;BMP280;56298;49.246;9.410;2023-04-25T03:17:12;98756.97;;;9.04
69186;BMP280;56298;49.246;9.410;2023-04-25T03:19:37;98744.28;;;8.96
69186;BMP280;56298;49.246;9.410;2023-04-25T03:22:02;98745.97;;;9.00
69186;BMP280;56298;49.246;9.410;2023-04-25T03:24:28;98751.78;;;8.99
69186;BMP280;56298;49.246;9.410;2023-04-25T03:26:53;98751.19;;;8.89
69186;BMP280;56298;49.246;9.410;2023-04-25T03:29:18;98747.19;;;9.03
69186;BMP280;56298;49.246;9.410;2023-04-25T03:31:43;98747.59;;;9.05
69186;BMP280;56298;49.246;9.410;2023-04-25T03:34:09;98746.75;;;9.01
69186;BMP280;56298;49.246;9.410;2023-04-25T03:36:34;98750.72;;;9.03
69186;BMP280;56298;49.246;9.410;2023-04-25T03:39:00;98748.84;;;9.08
69186;BMP280;56298;49.246;9.410;2023-04-25T03:41:25;98746.22;;;9.11
69186;BMP280;56298;49.246;9.410;2023-04-25T03:43:50;98745.69;;;9.06
69186;BMP280;56298;49.246;9.410;2023-04-25T03:46:16;98752.31;;;9.04
69186;BMP280;56298;49.246;9.410;2023-04-25T03:48:41;98751.78;;;8.99
69186;BMP280;56298;49.246;9.410;2023-04-25T03:51:06;98741.84;;;8.90
69186;BMP280;56298;49.246;9.410;2023-04-25T03:53:31;98746.53;;;8.90
69186;BMP280;56298;49.246;9.410;2023-04-25T03:55:57;98745.13;;;8.80
69186;BMP280;56298;49.246;9.410;2023-04-25T03:58:22;98750.06;;;8.74
69186;BMP280;56298;49.246;9.410;2023-04-25T04:00:49;98749.13;;;8.67
69186;BMP280;56298;49.246;9.410;2023-04-25T04:03:14;98749.94;;;8.51
69186;BMP280;56298;49.246;9.410;2023-04-25T04:05:39;98746.75;;;8.49
69186;BMP280;56298;49.246;9.410;2023-04-25T04:08:05;98750.28;;;8.49
69186;BMP280;56298;49.246;9.410;2023-04-25T04:10:31;98749.31;;;8.58
69186;BMP280;56298;49.246;9.410;2023-04-25T04:12:56;98747.22;;;8.51
69186;BMP280;56298;49.246;9.410;2023-04-25T04:15:21;98741.63;;;8.63
69186;BMP280;56298;49.246;9.410;2023-04-25T04:17:48;98744.38;;;8.63
69186;BMP280;56298;49.246;9.410;2023-04-25T04:20:13;98747.63;;;8.69
69186;BMP280;56298;49.246;9.410;2023-04-25T04:22:38;98745.94;;;8.65
69186;BMP280;56298;49.246;9.410;2023-04-25T04:25:04;98754.88;;;8.61
69186;BMP280;56298;49.246;9.410;2023-04-25T04:27:31;98757.50;;;8.58
69186;BMP280;56298;49.246;9.410;2023-04-25T04:29:56;98752.19;;;8.65
69186;BMP280;56298;49.246;9.410;2023-04-25T04:32:22;98757.06;;;8.56
69186;BMP280;56298;49.246;9.410;2023-04-25T04:34:48;98756.63;;;8.54
69186;BMP280;56298;49.246;9.410;2023-04-25T04:37:14;98757.69;;;8.49
69186;BMP280;56298;49.246;9.410;2023-04-25T04:39:40;98761.13;;;8.46
69186;BMP280;56298;49.246;9.410;2023-04-25T04:42:05;98764.22;;;8.44
69186;BMP280;56298;49.246;9.410;2023-04-25T04:44:31;98759.63;;;8.48
69186;BMP280;56298;49.246;9.410;2023-04-25T04:47:00;98768.97;;;8.47
69186;BMP280;56298;49.246;9.410;2023-04-25T04:49:25;98767.09;;;8.52
69186;BMP280;56298;49.246;9.410;2023-04-25T04:51:51;98770.34;;;8.41
69186;BMP280;56298;49.246;9.410;2023-04-25T04:54:17;98776.97;;;8.40
69186;BMP280;56298;49.246;9.410;2023-04-25T04:56:42;98772.41;;;8.44
69186;BMP280;56298;49.246;9.410;2023-04-25T04:59:08;98780.00;;;8.51
69186;BMP280;56298;49.246;9.410;2023-04-25T05:01:34;98781.75;;;8.59
69186;BMP280;56298;49.246;9.410;2023-04-25T05:04:02;98780.25;;;8.62
69186;BMP280;56298;49.246;9.410;2023-04-25T05:06:28;98777.34;;;8.71
69186;BMP280;56298;49.246;9.410;2023-04-25T05:08:55;98774.22;;;8.72
69186;BMP280;56298;49.246;9.410;2023-04-25T05:11:20;98782.16;;;8.77
69186;BMP280;56298;49.246;9.410;2023-04-25T05:13:46;98781.75;;;8.75
69186;BMP280;56298;49.246;9.410;2023-04-25T05:16:12;98784.09;;;8.77
69186;BMP280;56298;49.246;9.410;2023-04-25T05:18:39;98788.25;;;8.87
69186;BMP280;56298;49.246;9.410;2023-04-25T05:21:04;98796.19;;;8.76
69186;BMP280;56298;49.246;9.410;2023-04-25T05:23:30;98793.00;;;8.74
69186;BMP280;56298;49.246;9.410;2023-04-25T05:25:56;98794.94;;;8.73
69186;BMP280;56298;49.246;9.410;2023-04-25T05:28:21;98795.75;;;8.74
69186;BMP280;56298;49.246;9.410;2023-04-25T05:30:46;98795.31;;;8.72
69186;BMP280;56298;49.246;9.410;2023-04-25T05:33:12;98804.47;;;8.80
69186;BMP280;56298;49.246;9.410;2023-04-25T05:35:37;98807.88;;;8.93
69186;BMP280;56298;49.246;9.410;2023-04-25T05:38:02;98806.47;;;8.99
69186;BMP280;56298;49.246;9.410;2023-04-25T05:40:27;98808.66;;;8.93
69186;BMP280;56298;49.246;9.410;2023-04-25T05:42:53;98803.94;;;8.90
69186;BMP280;56298;49.246;9.410;2023-04-25T05:45:18;98805.53;;;8.91
69186;BMP280;56298;49.246;9.410;2023-04-25T05:47:43;98807.13;;;8.92
69186;BMP280;56298;49.246;9.410;2023-04-25T05:50:09;98810.53;;;8.89
69186;BMP280;56298;49.246;9.410;2023-04-25T05:52:34;98809.03;;;8.92
69186;BMP280;56298;49.246;9.410;2023-04-25T05:54:59;98810.38;;;8.98
69186;BMP280;56298;49.246;9.410;2023-04-25T05:57:26;98806.41;;;8.95
69186;BMP280;56298;49.246;9.410;2023-04-25T05:59:52;98815.03;;;8.97
69186;BMP280;56298;49.246;9.410;2023-04-25T06:02:18;98808.06;;;9.00
69186;BMP280;56298;49.246;9.410;2023-04-25T06:04:44;98821.47;;;8.89
69186;BMP280;56298;49.246;9.410;2023-04-25T06:07:09;98824.28;;;8.93
69186;BMP280;56298;49.246;9.410;2023-04-25T06:09:35;98826.94;;;8.89
69186;BMP280;56298;49.246;9.410;2023-04-25T06:12:00;98826.16;;;8.88
69186;BMP280;56298;49.246;9.410;2023-04-25T06:14:26;98830.06;;;8.87
69186;BMP280;56298;49.246;9.410;2023-04-25T06:16:52;98835.75;;;8.98
69186;BMP280;56298;49.246;9.410;2023-04-25T06:19:17;98830.09;;;9.07
69186;BMP280;56298;49.246;9.410;2023-04-25T06:21:43;98827.19;;;9.00
69186;BMP280;56298;49.246;9.410;2023-04-25T06:24:09;98827.81;;;9.09
69186;BMP280;56298;49.246;9.410;2023-04-25T06:26:34;98827.19;;;9.00
69186;BMP280;56298;49.246;9.410;2023-04-25T06:28:59;98829.91;;;9.16
69186;BMP280;56298;49.246;9.410;2023-04-25T06:31:25;98827.56;;;9.34
69186;BMP280;56298;49.246;9.410;2023-04-25T06:33:50;98823.19;;;9.49
69186;BMP280;56298;49.246;9.410;2023-04-25T06:36:16;98820.38;;;9.65
69186;BMP280;56298;49.246;9.410;2023-04-25T06:38:41;98820.75;;;9.83
69186;BMP280;56298;49.246;9.410;2023-04-25T06:41:06;98822.44;;;9.92
69186;BMP280;56298;49.246;9.410;2023-04-25T06:43:31;98822.44;;;10.11
69186;BMP280;56298;49.246;9.410;2023-04-25T06:45:59;98813.91;;;10.17
69186;BMP280;56298;49.246;9.410;2023-04-25T06:48:26;98820.38;;;10.28
69186;BMP280;56298;49.246;9.410;2023-04-25T06:50:51;98814.19;;;10.31
69186;BMP280;56298;49.246;9.410;2023-04-25T06:53:16;98817.94;;;10.46
69186;BMP280;56298;49.246;9.410;2023-04-25T06:55:42;98819.22;;;10.52
69186;BMP280;56298;49.246;9.410;2023-04-25T06:58:07;98817.66;;;11.05
69186;BMP280;56298;49.246;9.410;2023-04-25T07:00:32;98817.25;;;12.02
69186;BMP280;56298;49.246;9.410;2023-04-25T07:02:58;98814.19;;;12.60
69186;BMP280;56298;49.246;9.410;2023-04-25T07:05:23;98819.72;;;12.67
69186;BMP280;56298;49.246;9.410;2023-04-25T07:07:49;98821.19;;;12.53
69186;BMP280;56298;49.246;9.410;2023-04-25T07:10:14;98825.47;;;12.44
69186;BMP280;56298;49.246;9.410;2023-04-25T07:12:40;98826.47;;;12.73
69186;BMP280;56298;49.246;9.410;2023-04-25T07:15:06;98828.66;;;13.09
69186;BMP280;56298;49.246;9.410;2023-04-25T07:17:33;98832.31;;;13.46
69186;BMP280;56298;49.246;9.410;2023-04-25T07:19:58;98837.13;;;13.63
69186;BMP280;56298;49.246;9.410;2023-04-25T07:22:24;98827.63;;;13.46
69186;BMP280;56298;49.246;9.410;2023-04-25T07:24:51;98830.00;;;13.48
69186;BMP280;56298;49.246;9.410;2023-04-25T07:27:18;98840.84;;;13.08
69186;BMP280;56298;49.246;9.410;2023-04-25T07:29:43;98829.63;;;12.79
69186;BMP280;56298;49.246;9.410;2023-04-25T07:32:08;98842.56;;;12.26
69186;BMP280;56298;49.246;9.410;2023-04-25T07:34:35;98842.06;;;12.09
69186;BMP280;56298;49.246;9.410;2023-04-25T07:37:03;98850.09;;;12.33
69186;BMP280;56298;49.246;9.410;2023-04-25T07:39:29;98852.47;;;12.31
69186;BMP280;56298;49.246;9.410;2023-04-25T07:41:54;98854.59;;;12.07
69186;BMP280;56298;49.246;9.410;2023-04-25T07:44:20;98851.28;;;11.94
69186;BMP280;56298;49.246;9.410;2023-04-25T07:46:45;98859.13;;;11.58
69186;BMP280;56298;49.246;9.410;2023-04-25T07:49:10;98849.72;;;11.93
69186;BMP280;56298;49.246;9.410;2023-04-25T07:51:36;98857.59;;;11.94
69186;BMP280;56298;49.246;9.410;2023-04-25T07:54:01;98862.38;;;12.01
69186;BMP280;56298;49.246;9.410;2023-04-25T07:56:26;98865.94;;;12.05
69186;BMP280;56298;49.246;9.410;2023-04-25T07:58:52;98865.56;;;12.07
69186;BMP280;56298;49.246;9.410;2023-04-25T08:01:17;98866.31;;;12.04
69186;BMP280;56298;49.246;9.410;2023-04-25T08:03:44;98867.44;;;12.40
69186;BMP280;56298;49.246;9.410;2023-04-25T08:06:09;98867.00;;;12.80
69186;BMP280;56298;49.246;9.410;2023-04-25T08:08:34;98870.38;;;13.18
69186;BMP280;56298;49.246;9.410;2023-04-25T08:10:59;98870.91;;;13.49
69186;BMP280;56298;49.246;9.410;2023-04-25T08:13:25;98861.88;;;13.52
69186;BMP280;56298;49.246;9.410;2023-04-25T08:15:50;98878.38;;;13.45
69186;BMP280;56298;49.246;9.410;2023-04-25T08:18:16;98871.00;;;12.93
69186;BMP280;56298;49.246;9.410;2023-04-25T08:20:41;98879.38;;;13.11
69186;BMP280;56298;49.246;9.410;2023-04-25T08:23:06;98891.22;;;13.16
69186;BMP280;56298;49.246;9.410;2023-04-25T08:25:32;98888.09;;;13.17
69186;BMP280;56298;49.246;9.410;2023-04-25T08:27:57;98889.03;;;13.50
69186;BMP280;56298;49.246;9.410;2023-04-25T08:30:24;98886.63;;;13.45
69186;BMP280;56298;49.246;9.410;2023-04-25T08:32:49;98887.91;;;12.92
69186;BMP280;56298;49.246;9.410;2023-04-25T08:35:15;98896.47;;;12.79
69186;BMP280;56298;49.246;9.410;2023-04-25T08:37:41;98898.91;;;12.92
69186;BMP280;56298;49.246;9.410;2023-04-25T08:40:11;98901.56;;;12.77
69186;BMP280;56298;49.246;9.410;2023-04-25T08:42:37;98906.22;;;12.28
69186;BMP280;56298;49.246;9.410;2023-04-25T08:45:02;98907.56;;;12.07
69186;BMP280;56298;49.246;9.410;2023-04-25T08:47:29;98912.50;;;11.91
69186;BMP280;56298;49.246;9.410;2023-04-25T08:49:55;98907.72;;;11.84
69186;BMP280;56298;49.246;9.410;2023-04-25T08:52:22;98905.75;;;11.54
69186;BMP280;56298;49.246;9.410;2023-04-25T08:54:49;98909.28;;;11.24
69186;BMP280;56298;49.246;9.410;2023-04-25T08:57:14;98926.28;;;11.33
69186;BMP280;56298;49.246;9.410;2023-04-25T08:59:40;98920.69;;;11.57
69186;BMP280;56298;49.246;9.410;2023-04-25T09:02:10;98922.22;;;11.84
69186;BMP280;56298;49.246;9.410;2023-04-25T09:04:39;98917.72;;;12.03
69186;BMP280;56298;49.246;9.410;2023-04-25T09:07:05;98918.09;;;12.81
69186;BMP280;56298;49.246;9.410;2023-04-25T09:09:31;98922.69;;;13.25
69186;BMP280;56298;49.246;9.410;2023-04-25T09:11:56;98919.84;;;13.78
69186;BMP280;56298;49.246;9.410;2023-04-25T09:14:23;98930.53;;;14.05
69186;BMP280;56298;49.246;9.410;2023-04-25T09:19:28;98933.38;;;14.74
69186;BMP280;56298;49.246;9.410;2023-04-25T09:21:55;98929.03;;;15.13
69186;BMP280;56298;49.246;9.410;2023-04-25T09:24:30;98934.91;;;15.25
69186;BMP280;56298;49.246;9.410;2023-04-25T09:26:56;98938.06;;;15.31
69186;BMP280;56298;49.246;9.410;2023-04-25T09:29:29;98945.47;;;15.52
69186;BMP280;56298;49.246;9.410;2023-04-25T09:32:18;98943.13;;;15.47
69186;BMP280;56298;49.246;9.410;2023-04-25T09:34:51;98952.25;;;15.22
69186;BMP280;56298;49.246;9.410;2023-04-25T09:37:28;98958.59;;;15.27
69186;BMP280;56298;49.246;9.410;2023-04-25T09:39:55;98960.13;;;15.38
69186;BMP280;56298;49.246;9.410;2023-04-25T09:42:25;98964.44;;;15.47
69186;BMP280;56298;49.246;9.410;2023-04-25T09:44:55;98962.41;;;15.65
69186;BMP280;56298;49.246;9.410;2023-04-25T09:47:22;98965.63;;;15.42
69186;BMP280;56298;49.246;9.410;2023-04-25T09:49:48;98960.56;;;15.26
69186;BMP280;56298;49.246;9.410;2023-04-25T09:52:17;98968.84;;;14.79
69186;BMP280;56298;49.246;9.410;2023-04-25T09:54:44;98966.47;;;14.30
69186;BMP280;56298;49.246;9.410;2023-04-25T09:57:24;98968.03;;;14.31
69186;BMP280;56298;49.246;9.410;2023-04-25T09:59:51;98977.16;;;14.46
69186;BMP280;56298;49.246;9.410;2023-04-25T10:02:18;98971.91;;;14.12
69186;BMP280;56298;49.246;9.410;2023-04-25T10:04:51;98975.50;;;14.27
69186;BMP280;56298;49.246;9.410;2023-04-25T10:07:19;98973.56;;;14.31
69186;BMP280;56298;49.246;9.410;2023-04-25T10:09:48;98983.84;;;14.49
69186;BMP280;56298;49.246;9.410;2023-04-25T10:12:16;98977.56;;;14.59
69186;BMP280;56298;49.246;9.410;2023-04-25T10:14:42;98981.09;;;14.74
69186;BMP280;56298;49.246;9.410;2023-04-25T10:17:10;98977.94;;;14.90
69186;BMP280;56298;49.246;9.410;2023-04-25T10:19:36;98984.63;;;15.04
69186;BMP280;56298;49.246;9.410;2023-04-25T10:22:13;98986.94;;;15.34
69186;BMP280;56298;49.246;9.410;2023-04-25T10:24:41;98988.44;;;15.68
69186;BMP280;56298;49.246;9.410;2023-04-25T10:27:07;98984.28;;;16.16
69186;BMP280;56298;49.246;9.410;2023-04-25T10:29:32;98987.00;;;16.27
69186;BMP280;56298;49.246;9.410;2023-04-25T10:31:57;98982.63;;;16.26
69186;BMP280;56298;49.246;9.410;2023-04-25T10:34:43;98977.78;;;16.45
69186;BMP280;56298;49.246;9.410;2023-04-25T10:37:09;98978.22;;;16.39
69186;BMP280;56298;49.246;9.410;2023-04-25T10:39:35;98992.41;;;16.45
69186;BMP280;56298;49.246;9.410;2023-04-25T10:42:02;98981.09;;;16.78
69186;BMP280;56298;49.246;9.410;2023-04-25T10:44:29;98978.63;;;16.87
69186;BMP280;56298;49.246;9.410;2023-04-25T10:46:55;98977.41;;;17.65
69186;BMP280;56298;49.246;9.410;2023-04-25T10:49:29;98978.66;;;17.60
69186;BMP280;56298;49.246;9.410;2023-04-25T10:52:25;98976.59;;;17.68
69186;BMP280;56298;49.246;9.410;2023-04-25T10:54:55;98985.56;;;17.06
69186;BMP280;56298;49.246;9.410;2023-04-25T10:57:28;98979.59;;;16.66
69186;BMP280;56298;49.246;9.410;2023-04-25T10:59:58;98990.34;;;16.57
69186;BMP280;56298;49.246;9.410;2023-04-25T11:02:26;98986.13;;;16.90
69186;BMP280;56298;49.246;9.410;2023-04-25T11:04:53;98987.59;;;16.53
69186;BMP280;56298;49.246;9.410;2023-04-25T11:07:26;98991.41;;;16.14
69186;BMP280;56298;49.246;9.410;2023-04-25T11:09:53;98998.19;;;16.05
69186;BMP280;56298;49.246;9.410;2023-04-25T11:12:19;98998.78;;;15.49
69186;BMP280;56298;49.246;9.410;2023-04-25T11:14:44;98999.56;;;15.53
69186;BMP280;56298;49.246;9.410;2023-04-25T11:17:10;98995.00;;;16.10
69186;BMP280;56298;49.246;9.410;2023-04-25T11:19:36;98994.44;;;16.34
69186;BMP280;56298;49.246;9.410;2023-04-25T11:22:02;98997.00;;;16.66
69186;BMP280;56298;49.246;9.410;2023-04-25T11:24:33;98994.94;;;16.74
69186;BMP280;56298;49.246;9.410;2023-04-25T11:27:02;98991.72;;;16.83
69186;BMP280;56298;49.246;9.410;2023-04-25T11:29:30;98990.13;;;17.27
69186;BMP280;56298;49.246;9.410;2023-04-25T11:31:56;98997.47;;;17.45
69186;BMP280;56298;49.246;9.410;2023-04-25T11:34:23;98996.78;;;17.68
69186;BMP280;56298;49.246;9.410;2023-04-25T11:36:50;98988.72;;;18.36
69186;BMP280;56298;49.246;9.410;2023-04-25T11:39:15;98991.19;;;18.30
69186;BMP280;56298;49.246;9.410;2023-04-25T11:41:41;98991.19;;;17.41
69186;BMP280;56298;49.246;9.410;2023-04-25T11:44:06;98993.88;;;17.06
69186;BMP280;56298;49.246;9.410;2023-04-25T11:46:35;98993.06;;;16.64
69186;BMP280;56298;49.246;9.410;2023-04-25T11:49:01;99004.16;;;15.93
69186;BMP280;56298;49.246;9.410;2023-04-25T11:51:26;99007.06;;;15.53
69186;BMP280;56298;49.246;9.410;2023-04-25T11:53:52;99010.66;;;14.92
69186;BMP280;56298;49.246;9.410;2023-04-25T11:56:17;99010.25;;;14.50
69186;BMP280;56298;49.246;9.410;2023-04-25T11:59:00;99011.69;;;14.11
69186;BMP280;56298;49.246;9.410;2023-04-25T12:01:27;99011.97;;;13.77
69186;BMP280;56298;49.246;9.410;2023-04-25T12:03:53;99018.91;;;13.56
69186;BMP280;56298;49.246;9.410;2023-04-25T12:06:18;99025.59;;;13.55
69186;BMP280;56298;49.246;9.410;2023-04-25T12:09:03;99020.03;;;13.48
69186;BMP280;56298;49.246;9.410;2023-04-25T12:11:30;99021.03;;;13.81
69186;BMP280;56298;49.246;9.410;2023-04-25T12:14:01;99026.66;;;14.06
69186;BMP280;56298;49.246;9.410;2023-04-25T12:16:27;99029.38;;;13.95
69186;BMP280;56298;49.246;9.410;2023-04-25T12:18:52;99021.53;;;14.08
69186;BMP280;56298;49.246;9.410;2023-04-25T12:21:20;99031.00;;;14.15
69186;BMP280;56298;49.246;9.410;2023-04-25T12:23:45;99030.91;;;13.89
69186;BMP280;56298;49.246;9.410;2023-04-25T12:26:11;99035.53;;;13.15
69186;BMP280;56298;49.246;9.410;2023-04-25T12:28:36;99039.38;;;12.65
69186;BMP280;56298;49.246;9.410;2023-04-25T12:31:06;99042.31;;;12.45
69186;BMP280;56298;49.246;9.410;2023-04-25T12:33:37;99043.50;;;12.14
69186;BMP280;56298;49.246;9.410;2023-04-25T12:36:05;99045.81;;;12.11
69186;BMP280;56298;49.246;9.410;2023-04-25T12:38:39;99045.44;;;12.09
69186;BMP280;56298;49.246;9.410;2023-04-25T12:41:05;99048.44;;;12.31
69186;BMP280;56298;49.246;9.410;2023-04-25T12:43:31;99042.63;;;12.74
69186;BMP280;56298;49.246;9.410;2023-04-25T12:45:56;99059.44;;;13.07
69186;BMP280;56298;49.246;9.410;2023-04-25T12:48:22;99060.16;;;12.62
69186;BMP280;56298;49.246;9.410;2023-04-25T12:50:49;99076.38;;;12.37
69186;BMP280;56298;49.246;9.410;2023-04-25T12:53:15;99079.53;;;12.08
69186;BMP280;56298;49.246;9.410;2023-04-25T12:55:41;99084.97;;;12.05
69186;BMP280;56298;49.246;9.410;2023-04-25T12:58:06;99090.84;;;12.03
69186;BMP280;56298;49.246;9.410;2023-04-25T13:00:31;99096.72;;;12.02
69186;BMP280;56298;49.246;9.410;2023-04-25T13:02:57;99084.78;;;12.17
69186;BMP280;56298;49.246;9.410;2023-04-25T13:05:22;99092.06;;;12.06
69186;BMP280;56298;49.246;9.410;2023-04-25T13:07:47;99088.38;;;12.21
69186;BMP280;56298;49.246;9.410;2023-04-25T13:10:13;99081.34;;;12.58
69186;BMP280;56298;49.246;9.410;2023-04-25T13:12:38;99085.97;;;12.85
69186;BMP280;56298;49.246;9.410;2023-04-25T13:15:04;99081.22;;;13.23
69186;BMP280;56298;49.246;9.410;2023-04-25T13:17:29;99078.63;;;13.41
69186;BMP280;56298;49.246;9.410;2023-04-25T13:19:55;99087.16;;;13.81
69186;BMP280;56298;49.246;9.410;2023-04-25T13:22:20;99081.31;;;13.90
69186;BMP280;56298;49.246;9.410;2023-04-25T13:24:45;99094.28;;;13.86
69186;BMP280;56298;49.246;9.410;2023-04-25T13:27:11;99097.47;;;13.91
69186;BMP280;56298;49.246;9.410;2023-04-25T13:29:37;99098.75;;;13.49
69186;BMP280;56298;49.246;9.410;2023-04-25T13:32:04;99101.38;;;12.93
69186;BMP280;56298;49.246;9.410;2023-04-25T13:34:29;99099.91;;;12.34
69186;BMP280;56298;49.246;9.410;2023-04-25T13:36:55;99105.84;;;12.36
69186;BMP280;56298;49.246;9.410;2023-04-25T13:39:20;99118.22;;;12.23
69186;BMP280;56298;49.246;9.410;2023-04-25T13:41:46;99106.00;;;12.51
69186;BMP280;56298;49.246;9.410;2023-04-25T13:44:11;99107.09;;;12.77
69186;BMP280;56298;49.246;9.410;2023-04-25T13:46:37;99109.69;;;12.62
69186;BMP280;56298;49.246;9.410;2023-04-25T13:49:03;99105.72;;;12.97
69186;BMP280;56298;49.246;9.410;2023-04-25T13:51:28;99102.75;;;13.10
69186;BMP280;56298;49.246;9.410;2023-04-25T13:53:53;99098.94;;;13.25
69186;BMP280;56298;49.246;9.410;2023-04-25T13:56:19;99093.88;;;13.31
69186;BMP280;56298;49.246;9.410;2023-04-25T13:58:45;99094.81;;;13.50
69186;BMP280;56298;49.246;9.410;2023-04-25T14:01:10;99096.84;;;13.60
69186;BMP280;56298;49.246;9.410;2023-04-25T14:03:36;99091.16;;;13.91
69186;BMP280;56298;49.246;9.410;2023-04-25T14:06:01;99095.22;;;14.12
69186;BMP280;56298;49.246;9.410;2023-04-25T14:08:26;99093.53;;;13.89
69186;BMP280;56298;49.246;9.410;2023-04-25T14:10:52;99089.81;;;14.37